28 Jul 2021 10:12 UTC 2021209+10:12 UTC

Overview Datums Bench Marks Data Query Site Visit Daily QC Messages Attributes

171: National Park Service - Bird Island

27° 29' 4" N   97° 19' 5" W
NPSBI
United States National Park Service United States National Park Service

Station Information

National Park Service - Bird Island
National Park Service - Bird Island
more pictures
 
Station Name:National Park Service - Bird Island
DNR ID:171
Location:27° 29' 4" N, 97° 19' 5" W

Water Level Forecasts

Latest Observations

Series Metric English Marine Observed at
Water Temperature 30.7 °C 87.3 °F 87.3 °F Jul 28 05:00 CDT
00h07m ago
Salinity 19.900 psu 19.900 psu 19.900 psu Jul 28 05:00 CDT
00h07m ago
pH 2.03 pH 2.03 pH 2.03 pH Jul 28 02:42 CDT
02h25m ago
Turbidity 5 ntu 5 ntu 5 ntu Jul 28 05:00 CDT
00h07m ago
Dissolved Oxygen 2.22 mg/L 0.000139 lb/ft3 0.000139 lb/ft3 Jul 28 05:00 CDT
00h07m ago

Maps

National Park Service - Bird Island
All Stations in Area
Entire Network
 

Recent Observations

Date/Time Water
Temp (°F)
Sal (psu) pH (pH) Turb (ntu) DO (lb/ft3)
Jul 28 05:00 CDT 87.3 19.900 5 0.000139
Jul 28 04:00 CDT 87.4 19.800 5 0.000101
Jul 28 03:00 CDT 87.6 19.700 6 0.000197
Jul 28 02:00 CDT 87.4 19.600 3.28 6 0.000189
Jul 28 01:00 CDT 87.8 19.500 9.99 6 0.000235
Jul 28 00:00 CDT 88.0 19.500 7.11 6 0.000270
Jul 27 23:00 CDT 88.7 19.500 9.25 6 0.000348
Jul 27 22:00 CDT 89.1 19.400 0.48 6 0.000340
Jul 27 21:00 CDT 89.8 19.400 1.81 6 0.000463
Jul 27 20:00 CDT 91.4 19.400 7 0.000609
Jul 27 19:00 CDT 92.3 19.400 7 0.000672
Jul 27 18:00 CDT 93.2 19.400 3.05 6 0.000705
Jul 27 17:00 CDT 92.8 19.400 3.38 7 0.000720
Jul 27 16:00 CDT 92.3 19.400 4.76 6 0.000647
Jul 27 15:00 CDT 91.6 19.400 6.59 6 0.000589
Jul 27 14:00 CDT 90.7 19.400 4.62 6 0.000514
Jul 27 13:00 CDT 89.4 19.400 6.01 6 0.000443
Jul 27 12:00 CDT 88.9 19.400 2.30 5 0.000378
Jul 27 11:00 CDT 87.4 19.400 0.58 5 0.000239
Jul 27 10:00 CDT 86.5 19.400 1.51 5 0.000207
Jul 27 09:00 CDT 86.2 19.400 1.76 5 0.000167
Jul 27 08:00 CDT 86.0 19.400 5 0.000157
Jul 27 07:00 CDT 86.0 19.400 5 0.000191
Jul 27 06:00 CDT 85.8 19.300 5 0.000160
Jul 27 05:00 CDT 86.0 19.300 5 0.000152

Historical Data Availability